createdAt,value
2022-10-14T00:01:03.925Z,33.88
2022-10-14T00:06:00.308Z,32.15
2022-10-14T00:10:53.656Z,32.58
2022-10-14T00:15:47.831Z,32.05
2022-10-14T00:20:44.066Z,31.15
2022-10-14T00:25:39.524Z,31.70
2022-10-14T00:30:34.142Z,35.35
2022-10-14T00:35:29.495Z,32.60
2022-10-14T00:45:17.784Z,32.20
2022-10-14T00:50:13.751Z,31.35
2022-10-14T00:55:11.926Z,36.30
2022-10-14T01:00:11.835Z,32.08
2022-10-14T01:05:07.514Z,36.85
2022-10-14T01:10:26.809Z,40.10
2022-10-14T01:15:37.544Z,36.28
2022-10-14T01:21:09.556Z,35.83
2022-10-14T01:26:38.055Z,36.35
2022-10-14T01:31:34.983Z,38.88
2022-10-14T01:36:48.932Z,38.78
2022-10-14T01:41:47.339Z,40.40
2022-10-14T01:46:41.754Z,35.55
2022-10-14T01:51:42.167Z,35.10
2022-10-14T01:56:40.385Z,36.00
2022-10-14T02:01:35.501Z,32.78
2022-10-14T02:06:29.859Z,34.63
2022-10-14T02:11:23.358Z,32.97
2022-10-14T02:16:40.564Z,36.90
2022-10-14T02:21:43.258Z,34.80
2022-10-14T02:26:37.790Z,37.40
2022-10-14T02:31:33.785Z,36.28
2022-10-14T02:36:28.154Z,35.10
2022-10-14T02:41:22.776Z,37.90
2022-10-14T02:46:20.365Z,37.25
2022-10-14T02:51:13.001Z,39.83
2022-10-14T02:56:07.291Z,48.10
2022-10-14T03:01:00.406Z,44.30
2022-10-14T03:05:55.036Z,45.10
2022-10-14T03:10:49.334Z,39.25
2022-10-14T03:15:42.720Z,34.13
2022-10-14T03:20:38.068Z,38.38
2022-10-14T03:25:34.805Z,39.25
2022-10-14T03:30:38.003Z,38.85
2022-10-14T03:35:37.982Z,35.22
2022-10-14T03:40:36.290Z,43.60
2022-10-14T03:45:34.121Z,43.05
2022-10-14T03:50:30.237Z,43.10
2022-10-14T03:55:23.547Z,45.00
2022-10-14T04:00:18.613Z,46.97
2022-10-14T04:05:19.648Z,41.92
2022-10-14T04:10:15.254Z,37.35
2022-10-14T04:15:14.309Z,33.05
2022-10-14T04:20:27.451Z,33.53
2022-10-14T04:25:21.601Z,32.58
2022-10-14T04:30:19.284Z,38.67
2022-10-14T04:35:20.085Z,34.13
2022-10-14T04:40:21.364Z,36.75
2022-10-14T04:45:14.848Z,33.92
2022-10-14T04:50:13.911Z,32.03
2022-10-14T04:55:27.672Z,34.88
2022-10-14T05:00:20.892Z,33.35
2022-10-14T05:05:26.748Z,37.95
2022-10-14T05:10:24.224Z,33.15
2022-10-14T05:15:19.153Z,32.10
2022-10-14T05:20:25.441Z,27.15
2022-10-14T05:25:22.677Z,27.52
2022-10-14T05:30:17.858Z,31.42
2022-10-14T05:35:22.064Z,25.60
2022-10-14T05:40:27.325Z,27.33
2022-10-14T05:45:22.101Z,25.23
2022-10-14T05:50:19.185Z,27.65
2022-10-14T05:55:13.882Z,29.13
2022-10-14T06:00:11.549Z,26.50
2022-10-14T06:05:11.939Z,27.80
2022-10-14T06:10:07.488Z,28.05
2022-10-14T06:15:01.352Z,36.03
2022-10-14T06:19:55.288Z,29.30
2022-10-14T06:24:49.292Z,34.05
2022-10-14T06:29:42.718Z,31.48
2022-10-14T06:34:36.481Z,38.05
2022-10-14T06:39:30.612Z,40.60
2022-10-14T06:44:25.213Z,36.70
2022-10-14T06:49:19.220Z,36.65
2022-10-14T06:54:12.953Z,38.38
2022-10-14T06:59:06.970Z,35.80
2022-10-14T07:04:01.693Z,33.17
2022-10-14T07:08:55.989Z,35.22
2022-10-14T07:13:49.848Z,39.22
2022-10-14T07:18:44.274Z,43.78
2022-10-14T07:23:38.551Z,45.42
2022-10-14T07:28:32.585Z,38.05
2022-10-14T07:33:25.849Z,28.20
2022-10-14T07:43:13.433Z,35.88
2022-10-14T07:48:07.578Z,35.55
2022-10-14T07:53:01.803Z,37.60
2022-10-14T07:57:56.309Z,37.42
2022-10-14T08:02:49.684Z,41.17
2022-10-14T08:07:43.968Z,35.08
2022-10-14T08:12:37.758Z,26.13
2022-10-14T08:17:30.260Z,33.45
2022-10-14T08:22:24.427Z,32.33
2022-10-14T08:27:19.768Z,33.05
2022-10-14T08:32:13.653Z,30.17
2022-10-14T08:37:07.102Z,34.28
2022-10-14T08:42:17.065Z,32.45
2022-10-14T08:47:14.895Z,33.88
2022-10-14T08:52:13.503Z,27.75
2022-10-14T08:57:26.491Z,27.38
2022-10-14T09:02:44.557Z,31.95
2022-10-14T09:07:38.111Z,28.65
2022-10-14T09:12:35.925Z,30.13
2022-10-14T09:17:37.935Z,32.55
2022-10-14T09:22:32.281Z,30.00
2022-10-14T09:27:26.300Z,34.92
2022-10-14T09:32:36.353Z,32.38
2022-10-14T09:37:35.104Z,34.97
2022-10-14T09:43:09.440Z,33.97
2022-10-14T09:48:08.508Z,35.70
2022-10-14T09:53:28.077Z,36.60
2022-10-14T09:58:32.883Z,37.03
2022-10-14T10:03:34.394Z,32.67
2022-10-14T10:08:32.292Z,38.65
2022-10-14T10:14:05.338Z,31.55
2022-10-14T10:19:00.953Z,33.25
2022-10-14T10:23:59.966Z,33.33
2022-10-14T10:28:54.852Z,33.17
2022-10-14T10:34:14.617Z,35.53
2022-10-14T10:39:34.567Z,32.08
2022-10-14T10:44:58.918Z,31.75
2022-10-14T10:50:10.955Z,33.67
2022-10-14T10:55:31.477Z,31.50
2022-10-14T11:05:18.574Z,33.05
2022-10-14T11:10:50.484Z,32.30
2022-10-14T11:16:02.112Z,34.70
2022-10-14T11:21:06.563Z,33.70
2022-10-14T11:26:01.571Z,39.55
2022-10-14T11:31:05.813Z,31.60
2022-10-14T11:36:04.327Z,33.58
2022-10-14T11:41:12.862Z,39.17
2022-10-14T11:46:13.080Z,31.55
2022-10-14T11:51:13.403Z,39.80
2022-10-14T11:56:18.755Z,35.83
2022-10-14T12:01:14.520Z,34.13
2022-10-14T12:06:25.641Z,34.45
2022-10-14T12:11:30.136Z,32.90
2022-10-14T12:16:24.767Z,35.50
2022-10-14T12:21:17.718Z,35.15
2022-10-14T12:26:38.907Z,32.38
2022-10-14T12:31:37.367Z,38.05
2022-10-14T12:36:38.353Z,38.33
2022-10-14T12:41:46.263Z,32.65
2022-10-14T12:46:47.882Z,32.28
2022-10-14T12:51:53.925Z,33.15
2022-10-14T12:57:30.779Z,33.65
2022-10-14T13:02:32.434Z,35.45
2022-10-14T13:07:40.271Z,33.70
2022-10-14T13:12:37.468Z,27.00
2022-10-14T13:17:42.743Z,31.90
2022-10-14T13:22:39.361Z,33.60
2022-10-14T13:27:48.501Z,30.38
2022-10-14T13:32:45.668Z,27.38
2022-10-14T13:38:15.522Z,33.38
2022-10-14T13:43:42.343Z,37.80
2022-10-14T13:48:40.187Z,30.90
2022-10-14T13:54:12.733Z,28.48
2022-10-14T13:59:44.039Z,37.77
2022-10-14T14:04:35.105Z,26.55
2022-10-14T14:09:31.761Z,29.98
2022-10-14T14:14:32.208Z,28.67
2022-10-14T14:19:34.826Z,32.25
2022-10-14T14:24:40.124Z,28.60
2022-10-14T14:29:34.459Z,28.77
2022-10-14T14:34:32.515Z,26.30
2022-10-14T14:39:29.557Z,26.42
2022-10-14T14:44:26.546Z,32.92
2022-10-14T14:49:28.734Z,28.67
2022-10-14T14:54:23.657Z,31.13
2022-10-14T14:59:38.496Z,31.23
2022-10-14T15:04:34.344Z,29.77
2022-10-14T15:09:45.013Z,31.65
2022-10-14T15:15:01.405Z,33.97
2022-10-14T15:20:08.430Z,33.45
2022-10-14T15:25:05.184Z,30.23
2022-10-14T15:30:18.358Z,37.95
2022-10-14T15:35:16.128Z,32.35
2022-10-14T15:40:19.960Z,32.35
2022-10-14T15:45:13.730Z,30.23
2022-10-14T15:50:10.135Z,29.55
2022-10-14T15:55:11.871Z,31.52
2022-10-14T16:00:07.624Z,35.67
2022-10-14T16:05:21.086Z,31.13
2022-10-14T16:10:16.855Z,29.90
2022-10-14T16:15:31.972Z,37.72
2022-10-14T16:20:27.009Z,38.35
2022-10-14T16:25:45.496Z,34.67
2022-10-14T16:35:40.773Z,24.10
2022-10-14T16:40:36.821Z,24.65
2022-10-14T16:45:32.418Z,27.50
2022-10-14T16:50:26.365Z,26.58
2022-10-14T16:55:19.391Z,30.75
2022-10-14T17:00:15.119Z,27.30
2022-10-14T17:05:11.868Z,28.20
2022-10-14T17:10:06.361Z,29.63
2022-10-14T17:15:00.083Z,29.30
2022-10-14T17:19:54.746Z,34.97
2022-10-14T17:24:50.005Z,36.17
2022-10-14T17:29:43.992Z,31.15
2022-10-14T17:34:38.580Z,42.70
2022-10-14T17:39:33.044Z,35.47
2022-10-14T17:44:26.644Z,35.33
2022-10-14T17:49:20.917Z,30.13
2022-10-14T17:54:19.318Z,38.40
2022-10-14T17:59:14.586Z,29.90
2022-10-14T18:04:08.633Z,32.30
2022-10-14T18:09:07.796Z,27.17
2022-10-14T18:14:04.853Z,29.73
2022-10-14T18:18:58.497Z,33.75
2022-10-14T18:23:52.688Z,38.00
2022-10-14T18:28:48.219Z,28.92
2022-10-14T18:33:42.998Z,35.00
2022-10-14T18:38:36.663Z,32.33
2022-10-14T18:43:30.302Z,36.10
2022-10-14T18:48:24.391Z,36.67
2022-10-14T18:53:17.812Z,30.05
2022-10-14T18:58:11.112Z,33.15
2022-10-14T19:03:05.593Z,34.92
2022-10-14T19:08:01.107Z,37.88
2022-10-14T19:12:54.276Z,36.05
2022-10-14T19:17:52.275Z,33.80
2022-10-14T19:22:47.797Z,35.28
2022-10-14T19:27:41.509Z,30.52
2022-10-14T19:32:34.786Z,39.20
2022-10-14T19:37:29.820Z,37.13
2022-10-14T19:42:23.027Z,34.13
2022-10-14T19:47:17.095Z,40.72
2022-10-14T19:52:11.956Z,32.05
2022-10-14T19:57:06.886Z,39.30
2022-10-14T20:02:01.303Z,35.75
2022-10-14T20:06:55.731Z,36.03
2022-10-14T20:11:49.720Z,36.72
2022-10-14T20:16:44.020Z,37.65
2022-10-14T20:21:37.913Z,32.95
2022-10-14T20:26:33.687Z,31.30
2022-10-14T20:31:28.293Z,31.48
2022-10-14T20:36:23.145Z,38.90
2022-10-14T20:41:23.178Z,42.15
2022-10-14T20:46:17.448Z,45.70
2022-10-14T20:51:12.729Z,42.85
2022-10-14T20:56:08.401Z,41.67
2022-10-14T21:01:10.392Z,38.28
2022-10-14T21:06:09.489Z,38.17
2022-10-14T21:11:09.178Z,39.92
2022-10-14T21:16:20.709Z,40.50
2022-10-14T21:21:16.657Z,47.10
2022-10-14T21:26:10.893Z,41.42
2022-10-14T21:31:13.722Z,40.22
2022-10-14T21:36:14.062Z,39.75
2022-10-14T21:41:09.365Z,38.28
2022-10-14T21:46:13.899Z,41.35
2022-10-14T21:51:27.993Z,42.00
2022-10-14T21:56:23.775Z,38.53
2022-10-14T22:01:18.610Z,44.75
2022-10-14T22:06:15.238Z,40.38
2022-10-14T22:11:40.272Z,38.55
2022-10-14T22:16:36.119Z,44.30
2022-10-14T22:21:34.639Z,43.78
2022-10-14T22:26:29.229Z,39.75
2022-10-14T22:31:23.156Z,48.85
2022-10-14T22:36:39.370Z,44.22
2022-10-14T22:41:35.717Z,45.70
2022-10-14T22:46:32.280Z,47.10
2022-10-14T22:51:29.003Z,50.47
2022-10-14T22:56:26.374Z,45.88
2022-10-14T23:01:21.784Z,43.72
2022-10-14T23:06:19.713Z,50.85
2022-10-14T23:11:18.774Z,44.40
2022-10-14T23:16:15.489Z,44.60
2022-10-14T23:21:13.503Z,40.15
2022-10-14T23:26:11.298Z,45.58
2022-10-14T23:31:17.689Z,42.75
2022-10-14T23:36:14.357Z,42.28
2022-10-14T23:41:08.142Z,40.33
2022-10-14T23:46:01.876Z,45.75
2022-10-14T23:50:56.404Z,42.03
2022-10-14T23:55:50.428Z,44.55
